Time;durP1;ratioP1;P1;durP2;ratioP2;P2;SDS_P1;SDS_P2;PMS_P1;PMS_P2;Temp;Humidity;BMP_temperature;BMP_pressure;BME280_temperature;BME280_humidity;BME280_pressure;Samples;Min_cycle;Max_cycle;Signal;HPM_P1;HPM_P2
2024/01/23 00:00:15;;;;;;;10.40;3.47;;;9.20;99.90;;;;;;5099085;28;20212;-82
2024/01/23 00:02:44;;;;;;;15.53;3.43;;;9.20;99.90;;;;;;5101021;28;20215;-82
2024/01/23 00:05:11;;;;;;;13.77;3.30;;;9.20;99.90;;;;;;5104760;28;20218;-82
2024/01/23 00:07:39;;;;;;;9.97;4.10;;;9.30;99.90;;;;;;5095439;28;20561;-82
2024/01/23 00:10:07;;;;;;;15.93;4.03;;;9.20;99.90;;;;;;5095227;28;20193;-82
2024/01/23 00:12:35;;;;;;;9.10;2.97;;;9.20;99.90;;;;;;5104273;28;20200;-82
2024/01/23 00:15:03;;;;;;;10.43;3.33;;;9.20;99.90;;;;;;5097263;28;20231;-82
2024/01/23 00:17:31;;;;;;;14.37;3.37;;;9.20;99.90;;;;;;5104399;28;20212;-82
2024/01/23 00:19:59;;;;;;;8.73;3.13;;;9.20;99.90;;;;;;5104847;27;20199;-82
2024/01/23 00:22:27;;;;;;;16.10;4.40;;;9.20;99.90;;;;;;5104816;28;20197;-82
2024/01/23 00:24:54;;;;;;;11.77;4.07;;;9.20;99.90;;;;;;5099643;28;20196;-82
2024/01/23 00:27:22;;;;;;;12.03;3.60;;;9.20;99.90;;;;;;5115057;28;20548;-82
2024/01/23 00:29:49;;;;;;;13.33;4.17;;;9.10;99.90;;;;;;5110809;28;20202;-82
2024/01/23 00:32:16;;;;;;;11.47;3.50;;;9.10;99.90;;;;;;5105852;28;20196;-82
2024/01/23 00:34:44;;;;;;;11.87;3.57;;;9.10;99.90;;;;;;5109784;28;20208;-82
2024/01/23 00:37:13;;;;;;;13.27;3.07;;;9.00;99.90;;;;;;5102617;28;20198;-82
2024/01/23 00:39:40;;;;;;;10.20;2.77;;;9.00;99.90;;;;;;5094621;28;20188;-83
2024/01/23 00:42:08;;;;;;;14.13;3.53;;;9.00;99.90;;;;;;5099547;28;20572;-82
2024/01/23 00:44:36;;;;;;;9.47;3.43;;;9.00;99.90;;;;;;5102692;28;20192;-82
2024/01/23 00:47:05;;;;;;;15.83;3.70;;;9.00;99.90;;;;;;5097556;28;20227;-82
2024/01/23 00:49:32;;;;;;;14.10;3.30;;;9.00;99.90;;;;;;5099610;28;20645;-82
2024/01/23 00:52:00;;;;;;;7.30;3.20;;;8.90;99.90;;;;;;5102055;28;20203;-82
2024/01/23 00:54:28;;;;;;;11.60;3.00;;;8.90;99.90;;;;;;5102993;28;20278;-82
2024/01/23 00:56:56;;;;;;;10.27;3.20;;;8.90;99.90;;;;;;5110267;28;20213;-82
2024/01/23 00:59:24;;;;;;;9.63;2.77;;;8.90;99.90;;;;;;5116722;27;20552;-82
2024/01/23 01:01:51;;;;;;;11.80;3.67;;;8.90;99.90;;;;;;5106404;28;20204;-82
2024/01/23 01:04:19;;;;;;;12.60;3.40;;;8.90;99.90;;;;;;5106936;27;20203;-82
2024/01/23 01:06:46;;;;;;;11.23;3.40;;;8.90;99.90;;;;;;5108856;27;20234;-82
2024/01/23 01:09:14;;;;;;;13.23;3.53;;;8.90;99.90;;;;;;5114326;27;20563;-82
2024/01/23 01:11:43;;;;;;;12.60;2.80;;;8.90;99.90;;;;;;5115267;27;20184;-82
2024/01/23 01:14:10;;;;;;;11.03;3.37;;;8.80;99.90;;;;;;5102545;27;20191;-82
2024/01/23 01:16:38;;;;;;;11.20;3.33;;;8.80;99.90;;;;;;5103752;27;20576;-83
2024/01/23 01:19:05;;;;;;;9.00;3.20;;;8.80;99.90;;;;;;5098267;27;20192;-82
2024/01/23 01:21:32;;;;;;;12.53;2.80;;;8.80;99.90;;;;;;5100450;28;20557;-82
2024/01/23 01:24:01;;;;;;;10.77;3.13;;;8.90;99.90;;;;;;5105279;28;20204;-82
2024/01/23 01:26:28;;;;;;;13.17;3.80;;;8.90;99.90;;;;;;5099971;28;20216;-82
2024/01/23 01:28:57;;;;;;;11.33;3.17;;;8.90;99.90;;;;;;5125624;27;20253;-82
2024/01/23 01:31:24;;;;;;;13.53;3.87;;;8.80;99.90;;;;;;5113098;27;20196;-82
2024/01/23 01:33:52;;;;;;;11.90;3.23;;;8.80;99.90;;;;;;5099454;27;20200;-82
2024/01/23 01:36:19;;;;;;;8.33;2.90;;;8.80;99.90;;;;;;5116006;27;20207;-82
2024/01/23 01:38:47;;;;;;;12.00;3.00;;;8.70;99.90;;;;;;5102916;28;20200;-82
2024/01/23 01:41:14;;;;;;;11.50;3.57;;;8.70;99.90;;;;;;5110018;27;20207;-82
2024/01/23 01:43:42;;;;;;;11.63;3.40;;;8.80;99.90;;;;;;5115650;27;20199;-82
2024/01/23 01:46:20;;;;;;;7.77;2.53;;;8.70;99.90;;;;;;5113423;27;20207;-82
2024/01/23 01:48:48;;;;;;;9.37;2.60;;;8.40;99.90;;;;;;5109342;27;20191;-82
2024/01/23 01:51:18;;;;;;;12.27;2.23;;;8.20;99.90;;;;;;5100342;28;20192;-82
2024/01/23 01:53:47;;;;;;;8.93;2.43;;;8.20;99.90;;;;;;5110929;27;20195;-82
2024/01/23 01:56:14;;;;;;;7.00;2.30;;;8.30;99.90;;;;;;5101706;28;20216;-82
2024/01/23 01:58:42;;;;;;;7.80;2.70;;;8.30;99.90;;;;;;5102042;28;20208;-82
2024/01/23 02:01:15;;;;;;;10.10;3.13;;;8.30;99.90;;;;;;5099588;27;20220;-82
2024/01/23 02:03:43;;;;;;;10.07;3.07;;;8.40;99.90;;;;;;5105940;28;20210;-82
2024/01/23 02:06:11;;;;;;;11.43;3.60;;;8.50;99.90;;;;;;5098846;28;20228;-82
2024/01/23 02:08:39;;;;;;;15.87;3.27;;;8.40;99.90;;;;;;5091581;28;20196;-82
2024/01/23 02:11:07;;;;;;;9.27;3.33;;;8.40;99.90;;;;;;5121817;27;20198;-82
2024/01/23 02:13:35;;;;;;;13.40;2.73;;;8.50;99.90;;;;;;5119101;27;20204;-82
2024/01/23 02:16:03;;;;;;;11.57;3.50;;;8.50;99.90;;;;;;5114552;27;20207;-82
2024/01/23 02:18:31;;;;;;;13.13;3.20;;;8.40;99.90;;;;;;5102736;28;20203;-82
2024/01/23 02:20:59;;;;;;;11.47;3.23;;;8.40;99.90;;;;;;5120886;27;20204;-82
2024/01/23 02:23:29;;;;;;;12.13;3.07;;;8.50;99.90;;;;;;5106274;28;20205;-82
2024/01/23 02:25:57;;;;;;;10.03;3.20;;;8.60;99.90;;;;;;5097086;28;20215;-82
2024/01/23 02:28:25;;;;;;;8.60;3.33;;;8.50;99.90;;;;;;5115804;27;20188;-82
2024/01/23 02:30:52;;;;;;;11.03;2.90;;;8.40;99.90;;;;;;5095390;28;20208;-82
2024/01/23 02:33:20;;;;;;;11.33;2.87;;;8.50;99.90;;;;;;5097147;28;20188;-82
2024/01/23 02:35:47;;;;;;;6.87;2.20;;;8.50;99.90;;;;;;5106598;27;20222;-82
2024/01/23 02:38:14;;;;;;;8.90;2.60;;;8.50;99.90;;;;;;5104437;27;20196;-82
2024/01/23 02:40:43;;;;;;;4.97;2.13;;;8.40;99.90;;;;;;5097667;28;20200;-82
2024/01/23 02:43:11;;;;;;;8.27;2.57;;;8.40;99.90;;;;;;5097322;28;20223;-82
2024/01/23 02:45:38;;;;;;;10.43;2.93;;;8.40;99.90;;;;;;5116336;27;20212;-82
2024/01/23 02:48:06;;;;;;;8.17;2.67;;;8.40;99.90;;;;;;5097010;27;20199;-82
2024/01/23 02:50:34;;;;;;;8.83;2.63;;;8.40;99.90;;;;;;5112758;27;20200;-82
2024/01/23 02:53:01;;;;;;;10.47;3.00;;;8.30;99.90;;;;;;5101719;28;20560;-82
2024/01/23 02:55:28;;;;;;;10.77;2.87;;;8.30;99.90;;;;;;5101473;27;20211;-82
2024/01/23 02:57:57;;;;;;;11.80;3.40;;;8.20;99.90;;;;;;5116465;27;20192;-82
2024/01/23 03:00:25;;;;;;;13.43;2.77;;;8.40;99.90;;;;;;5097282;28;20198;-82
2024/01/23 03:02:52;;;;;;;14.00;3.00;;;8.30;99.90;;;;;;5102458;27;20222;-82
2024/01/23 03:05:20;;;;;;;8.80;3.13;;;8.30;99.90;;;;;;5098427;28;20224;-82
2024/01/23 03:07:47;;;;;;;10.73;3.07;;;8.30;99.90;;;;;;5100664;27;20211;-82
2024/01/23 03:10:15;;;;;;;10.00;4.00;;;8.40;99.90;;;;;;5107871;28;20191;-82
2024/01/23 03:12:42;;;;;;;8.60;2.93;;;8.30;99.90;;;;;;5098451;28;20196;-82
2024/01/23 03:15:11;;;;;;;11.83;3.37;;;8.30;99.90;;;;;;5123258;27;20697;-82
2024/01/23 03:17:39;;;;;;;10.27;2.87;;;8.30;99.90;;;;;;5112471;27;20207;-82
2024/01/23 03:20:08;;;;;;;12.13;3.40;;;8.30;99.90;;;;;;5102901;28;20200;-82
2024/01/23 03:22:35;;;;;;;10.70;3.07;;;8.30;99.90;;;;;;5099241;28;20224;-82
2024/01/23 03:25:03;;;;;;;11.00;3.50;;;8.30;99.90;;;;;;5103935;28;20212;-82
2024/01/23 03:27:31;;;;;;;10.63;3.07;;;8.30;99.90;;;;;;5101481;28;20192;-82
2024/01/23 03:29:58;;;;;;;10.73;3.37;;;8.40;99.90;;;;;;5095669;28;20207;-82
2024/01/23 03:32:27;;;;;;;10.57;2.80;;;8.40;99.90;;;;;;5100722;28;20200;-82
2024/01/23 03:34:55;;;;;;;11.47;3.50;;;8.40;99.90;;;;;;5098266;28;20208;-82
2024/01/23 03:37:23;;;;;;;12.80;3.37;;;8.30;99.90;;;;;;5121674;27;20180;-82
2024/01/23 03:39:50;;;;;;;15.23;3.17;;;8.30;99.90;;;;;;5100038;28;20211;-82
2024/01/23 03:42:18;;;;;;;12.10;3.47;;;8.30;99.90;;;;;;5094662;28;20204;-82
2024/01/23 03:44:45;;;;;;;9.07;2.63;;;8.30;99.90;;;;;;5090519;28;20203;-82
2024/01/23 03:47:13;;;;;;;9.50;2.77;;;8.30;99.90;;;;;;5100297;28;20204;-82
2024/01/23 03:49:41;;;;;;;9.30;3.07;;;8.30;99.90;;;;;;5098585;28;20207;-82
2024/01/23 03:52:08;;;;;;;12.10;3.03;;;8.30;99.90;;;;;;5105417;28;20180;-82
2024/01/23 03:54:36;;;;;;;14.57;3.07;;;8.30;99.90;;;;;;5115775;28;20196;-82
2024/01/23 03:57:03;;;;;;;11.43;4.37;;;8.20;99.90;;;;;;5099296;28;20222;-82
2024/01/23 03:59:31;;;;;;;14.53;2.57;;;8.20;99.90;;;;;;5096908;28;20196;-82
2024/01/23 04:01:58;;;;;;;9.73;2.70;;;8.20;99.90;;;;;;5111517;28;20196;-82
2024/01/23 04:04:26;;;;;;;12.27;3.13;;;8.30;99.90;;;;;;5097868;28;20196;-81
2024/01/23 04:06:55;;;;;;;11.53;3.20;;;8.20;99.90;;;;;;5098356;28;20212;-82
2024/01/23 04:09:22;;;;;;;11.73;3.10;;;8.30;99.90;;;;;;5090971;28;20637;-82
2024/01/23 04:11:50;;;;;;;14.90;3.90;;;8.30;99.90;;;;;;5093780;28;20200;-82
2024/01/23 04:14:17;;;;;;;7.73;2.53;;;8.10;99.90;;;;;;5089523;28;20196;-82
2024/01/23 04:16:45;;;;;;;9.30;2.77;;;8.20;99.90;;;;;;5093324;28;20787;-82
2024/01/23 04:19:12;;;;;;;14.93;3.47;;;8.20;99.90;;;;;;5118525;28;20184;-82
2024/01/23 04:21:40;;;;;;;11.47;3.20;;;8.20;99.90;;;;;;5100021;27;20218;-82
2024/01/23 04:24:09;;;;;;;12.50;3.63;;;8.20;99.90;;;;;;5106438;27;20211;-82
2024/01/23 04:26:37;;;;;;;14.70;2.93;;;8.20;99.90;;;;;;5100496;28;20220;-82
2024/01/23 04:29:05;;;;;;;12.77;3.30;;;8.10;99.90;;;;;;5100310;27;20204;-82
2024/01/23 04:31:32;;;;;;;14.63;3.97;;;8.10;99.90;;;;;;5106482;27;20199;-82
2024/01/23 04:34:00;;;;;;;13.73;3.43;;;8.20;99.90;;;;;;5097508;28;20196;-82
2024/01/23 04:36:27;;;;;;;13.00;3.17;;;8.10;99.90;;;;;;5099167;27;20697;-82
2024/01/23 04:38:55;;;;;;;11.50;2.50;;;8.10;99.90;;;;;;5093262;27;20202;-82
2024/01/23 04:41:24;;;;;;;15.93;3.97;;;8.10;99.90;;;;;;5102077;28;20192;-82
2024/01/23 04:43:52;;;;;;;15.83;3.30;;;8.10;99.90;;;;;;5102491;28;20220;-82
2024/01/23 04:46:19;;;;;;;13.23;3.17;;;8.10;99.90;;;;;;5098079;28;20223;-82
2024/01/23 04:48:47;;;;;;;15.57;3.43;;;8.00;99.90;;;;;;5102490;28;20207;-82
2024/01/23 04:51:15;;;;;;;12.20;3.13;;;7.90;99.90;;;;;;5108536;27;20188;-82
2024/01/23 04:53:42;;;;;;;11.53;3.27;;;7.90;99.90;;;;;;5114453;28;20196;-82
2024/01/23 04:56:10;;;;;;;9.67;3.13;;;7.90;99.90;;;;;;5112545;27;20222;-82
2024/01/23 04:58:39;;;;;;;12.20;2.93;;;7.90;99.90;;;;;;5104786;28;20193;-81
2024/01/23 05:01:09;;;;;;;15.33;3.10;;;7.80;99.90;;;;;;5105240;28;20200;-81
2024/01/23 05:03:36;;;;;;;10.50;2.80;;;7.90;99.90;;;;;;5111621;27;20546;-81
2024/01/23 05:06:04;;;;;;;10.50;3.00;;;7.90;99.90;;;;;;5093974;28;20236;-81
2024/01/23 05:08:32;;;;;;;13.20;3.67;;;7.80;99.90;;;;;;5118342;27;20199;-81
2024/01/23 05:10:59;;;;;;;7.97;3.13;;;7.80;99.90;;;;;;5101226;28;20200;-81
2024/01/23 05:13:27;;;;;;;14.30;2.73;;;7.70;99.90;;;;;;5104995;28;20537;-81
2024/01/23 05:15:55;;;;;;;9.03;3.00;;;7.70;99.90;;;;;;5107424;27;20215;-81
2024/01/23 05:18:23;;;;;;;9.07;3.10;;;7.60;99.90;;;;;;5102402;28;20569;-81
2024/01/23 05:20:50;;;;;;;13.63;2.70;;;7.60;99.90;;;;;;5100418;27;20208;-81
2024/01/23 05:23:18;;;;;;;11.07;2.90;;;7.60;99.90;;;;;;5112339;27;20226;-81
2024/01/23 05:25:45;;;;;;;13.50;3.03;;;7.60;99.90;;;;;;5098444;28;20212;-82
2024/01/23 05:28:13;;;;;;;11.13;2.80;;;7.50;99.90;;;;;;5097455;28;20196;-82
2024/01/23 05:30:40;;;;;;;14.87;3.57;;;7.50;99.90;;;;;;5096440;28;20196;-81
2024/01/23 05:33:09;;;;;;;14.53;3.87;;;7.50;99.90;;;;;;5104962;28;20193;-82
2024/01/23 05:35:37;;;;;;;10.67;2.80;;;7.60;99.90;;;;;;5098737;28;20235;-81
2024/01/23 05:38:04;;;;;;;12.43;3.13;;;7.50;99.90;;;;;;5112695;27;20574;-82
2024/01/23 05:40:32;;;;;;;12.50;3.03;;;7.60;99.90;;;;;;5109416;27;20203;-82
2024/01/23 05:43:00;;;;;;;16.87;3.43;;;7.50;99.90;;;;;;5099499;28;20726;-81
2024/01/23 05:45:28;;;;;;;14.27;3.10;;;7.60;99.90;;;;;;5098303;27;20227;-81
2024/01/23 05:47:55;;;;;;;10.43;2.30;;;7.60;99.90;;;;;;5115402;27;20203;-81
2024/01/23 05:50:25;;;;;;;15.90;2.93;;;7.50;99.90;;;;;;5102469;28;20203;-81
2024/01/23 05:52:53;;;;;;;10.80;3.27;;;7.50;99.90;;;;;;5099020;27;20199;-81
2024/01/23 05:55:21;;;;;;;11.83;2.67;;;7.50;99.90;;;;;;5109323;28;20216;-81
2024/01/23 05:57:48;;;;;;;11.03;3.43;;;7.60;99.90;;;;;;5101945;27;20191;-81
2024/01/23 06:00:16;;;;;;;9.83;2.67;;;7.50;99.90;;;;;;5086460;22;20226;-79
2024/01/23 06:02:44;;;;;;;13.23;4.07;;;7.40;99.90;;;;;;5066942;28;20209;-77
2024/01/23 06:05:11;;;;;;;10.73;3.00;;;7.30;99.90;;;;;;5057294;28;20687;-77
2024/01/23 06:07:43;;;;;;;14.83;4.43;;;7.40;99.90;;;;;;5053116;28;20198;-77
2024/01/23 06:10:10;;;;;;;11.00;3.20;;;7.40;99.90;;;;;;5057957;28;20218;-78
2024/01/23 06:12:38;;;;;;;7.73;2.83;;;7.30;99.90;;;;;;5067118;28;20206;-78
2024/01/23 06:15:07;;;;;;;18.07;4.47;;;7.30;99.90;;;;;;5057347;28;20195;-77
2024/01/23 06:17:35;;;;;;;13.70;3.70;;;7.30;99.90;;;;;;5055497;28;20541;-78
2024/01/23 06:20:04;;;;;;;14.23;3.03;;;7.30;99.90;;;;;;5062533;28;20217;-77
2024/01/23 06:22:31;;;;;;;9.37;3.07;;;7.20;99.90;;;;;;5063189;28;20188;-77
2024/01/23 06:25:04;;;;;;;7.90;3.13;;;7.20;99.90;;;;;;5051514;28;20213;-77
2024/01/23 06:27:31;;;;;;;12.37;3.50;;;7.10;99.90;;;;;;5069181;28;20200;-78
2024/01/23 06:29:59;;;;;;;10.00;2.83;;;7.20;99.90;;;;;;5073417;28;20212;-77
2024/01/23 06:32:26;;;;;;;12.20;3.33;;;7.10;99.90;;;;;;5063685;28;20202;-77
2024/01/23 06:34:54;;;;;;;11.73;2.77;;;7.10;99.90;;;;;;5057691;28;20673;-77
2024/01/23 06:37:22;;;;;;;13.40;3.10;;;7.10;99.90;;;;;;5056609;28;20197;-77
2024/01/23 06:43:38;;;;;;;9.17;2.93;;;7.00;99.90;;;;;;5070556;28;20203;-77
2024/01/23 06:46:09;;;;;;;15.33;3.60;;;7.00;99.90;;;;;;5043697;28;20193;-78
2024/01/23 06:48:37;;;;;;;15.13;3.20;;;7.00;99.90;;;;;;5064023;28;20225;-77
2024/01/23 06:51:05;;;;;;;11.70;3.13;;;7.00;99.90;;;;;;5066728;28;20198;-78
2024/01/23 06:53:32;;;;;;;15.13;3.03;;;7.00;99.90;;;;;;5068126;28;20190;-77
2024/01/23 06:55:59;;;;;;;11.77;3.07;;;7.10;99.90;;;;;;5051659;28;20209;-77
2024/01/23 06:58:46;;;;;;;12.70;3.27;;;7.20;99.90;;;;;;5059758;28;20637;-76
2024/01/23 07:01:13;;;;;;;15.60;4.00;;;7.10;99.90;;;;;;5055687;28;20230;-78
2024/01/23 07:03:40;;;;;;;12.27;2.67;;;7.00;99.90;;;;;;5044379;28;20606;-79
2024/01/23 07:06:08;;;;;;;13.77;3.50;;;7.00;99.90;;;;;;5056501;28;20202;-79
2024/01/23 07:08:37;;;;;;;15.23;3.20;;;7.00;99.90;;;;;;5023911;28;20663;-79
2024/01/23 07:11:05;;;;;;;13.67;2.83;;;7.00;99.90;;;;;;5039951;28;20224;-79
2024/01/23 07:13:32;;;;;;;11.10;3.33;;;7.00;99.90;;;;;;5059789;28;20188;-79
2024/01/23 07:16:01;;;;;;;9.97;2.53;;;7.00;99.90;;;;;;5033704;28;20217;-79
2024/01/23 07:18:28;;;;;;;10.67;2.97;;;7.00;99.90;;;;;;5064632;28;20197;-79
2024/01/23 07:20:55;;;;;;;13.27;2.90;;;7.00;99.90;;;;;;5074677;28;20193;-79
2024/01/23 07:23:23;;;;;;;15.00;4.20;;;7.00;99.90;;;;;;5067908;28;20678;-78
2024/01/23 07:25:50;;;;;;;14.33;3.40;;;7.00;99.90;;;;;;5065480;28;20218;-79
2024/01/23 07:28:18;;;;;;;14.70;4.27;;;7.00;99.90;;;;;;5063665;28;20201;-79
2024/01/23 07:30:45;;;;;;;12.73;3.93;;;7.10;99.90;;;;;;5069529;28;20201;-79
2024/01/23 07:33:14;;;;;;;16.07;3.93;;;7.10;99.90;;;;;;5070561;28;20209;-79
2024/01/23 07:35:44;;;;;;;16.97;3.60;;;7.10;99.90;;;;;;5066761;28;20194;-79
2024/01/23 07:38:18;;;;;;;17.83;3.63;;;7.10;99.90;;;;;;5068127;28;20198;-79
2024/01/23 07:40:46;;;;;;;12.50;3.67;;;7.20;99.90;;;;;;5066904;28;20204;-79
2024/01/23 07:43:14;;;;;;;19.27;4.33;;;7.20;99.90;;;;;;5057542;28;20414;-79
2024/01/23 07:45:42;;;;;;;8.47;2.53;;;7.10;99.90;;;;;;5068196;28;20217;-79
2024/01/23 07:48:09;;;;;;;14.13;3.50;;;7.00;99.90;;;;;;5065868;28;20186;-79
2024/01/23 07:50:40;;;;;;;14.07;4.27;;;7.00;99.90;;;;;;5061526;28;20304;-78
2024/01/23 07:53:07;;;;;;;13.47;4.37;;;7.10;99.90;;;;;;5062264;28;20544;-78
2024/01/23 07:55:34;;;;;;;14.27;3.73;;;7.10;99.90;;;;;;5058723;28;20547;-78
2024/01/23 07:58:02;;;;;;;17.60;3.47;;;7.00;99.90;;;;;;5058447;28;20594;-79
2024/01/23 08:00:29;;;;;;;20.90;3.73;;;7.00;99.90;;;;;;5059384;28;20612;-77
2024/01/23 08:02:57;;;;;;;9.00;3.23;;;7.00;99.90;;;;;;5067696;28;20208;-78
2024/01/23 08:05:40;;;;;;;13.53;4.10;;;7.00;99.90;;;;;;5077985;28;20205;-78
2024/01/23 08:08:09;;;;;;;15.10;3.67;;;7.00;99.90;;;;;;5075745;28;20199;-78
2024/01/23 08:10:39;;;;;;;8.70;2.97;;;6.80;99.90;;;;;;5061090;28;20224;-79
2024/01/23 08:13:07;;;;;;;14.07;4.63;;;6.90;99.90;;;;;;5055691;28;20205;-79
2024/01/23 08:15:34;;;;;;;13.47;3.80;;;6.80;99.90;;;;;;5055521;28;20186;-80
2024/01/23 08:18:04;;;;;;;8.87;2.90;;;6.80;99.90;;;;;;5059252;28;20212;-78
2024/01/23 08:20:40;;;;;;;17.60;3.50;;;6.80;99.90;;;;;;5050531;28;20537;-78
2024/01/23 08:23:08;;;;;;;15.07;3.83;;;6.80;99.90;;;;;;5043706;28;20197;-78
2024/01/23 08:25:36;;;;;;;15.83;4.27;;;6.70;99.90;;;;;;5057553;28;20213;-79
2024/01/23 08:28:04;;;;;;;12.80;4.03;;;6.80;99.90;;;;;;5054175;28;20209;-79
2024/01/23 08:30:32;;;;;;;11.50;2.90;;;6.80;99.90;;;;;;5066042;28;20233;-79
2024/01/23 08:32:59;;;;;;;16.13;4.53;;;6.80;99.90;;;;;;5061886;28;20209;-79
2024/01/23 08:35:26;;;;;;;15.63;3.40;;;6.80;99.90;;;;;;5059490;28;20220;-79
2024/01/23 08:37:55;;;;;;;14.17;3.40;;;6.80;99.90;;;;;;5053651;28;20197;-79
2024/01/23 08:40:24;;;;;;;12.80;3.50;;;6.90;99.90;;;;;;5057984;28;20220;-79
2024/01/23 08:42:51;;;;;;;18.10;3.80;;;6.90;99.90;;;;;;5059335;28;20686;-79
2024/01/23 08:45:22;;;;;;;14.67;3.53;;;6.90;99.90;;;;;;5056783;28;20210;-79
2024/01/23 08:47:49;;;;;;;11.60;3.60;;;6.90;99.90;;;;;;5056870;28;20209;-79
2024/01/23 08:50:17;;;;;;;13.30;3.20;;;6.90;99.90;;;;;;5050069;28;20233;-79
2024/01/23 08:52:45;;;;;;;12.93;3.60;;;6.90;99.90;;;;;;5059416;28;20565;-79
2024/01/23 08:55:14;;;;;;;13.70;4.13;;;6.80;99.90;;;;;;5068748;28;20204;-79
2024/01/23 08:57:42;;;;;;;16.07;4.27;;;6.80;99.90;;;;;;5068995;28;20553;-79
2024/01/23 09:00:12;;;;;;;12.03;4.13;;;6.90;99.90;;;;;;5062297;28;20250;-78
2024/01/23 09:02:40;;;;;;;13.17;3.93;;;6.90;99.90;;;;;;5068602;28;20189;-79
2024/01/23 09:05:08;;;;;;;11.43;3.30;;;7.00;99.90;;;;;;5062865;28;20220;-79
2024/01/23 09:07:36;;;;;;;8.83;3.03;;;7.00;99.90;;;;;;5065534;28;20200;-79
2024/01/23 09:10:03;;;;;;;13.07;2.87;;;7.10;99.90;;;;;;5062929;28;20214;-79
2024/01/23 09:12:33;;;;;;;13.23;3.60;;;7.10;99.90;;;;;;5053904;28;20228;-79
2024/01/23 09:15:01;;;;;;;16.50;3.63;;;7.20;99.90;;;;;;5067888;28;20700;-79
2024/01/23 09:17:28;;;;;;;10.37;4.03;;;7.10;99.90;;;;;;5067485;28;20207;-79
2024/01/23 09:19:55;;;;;;;12.97;4.03;;;7.10;99.90;;;;;;5076209;28;20228;-79
2024/01/23 09:22:23;;;;;;;13.30;3.03;;;7.20;99.90;;;;;;5076254;28;20282;-79
2024/01/23 09:24:50;;;;;;;16.80;3.20;;;7.10;99.90;;;;;;5077866;28;20209;-79
2024/01/23 09:27:17;;;;;;;13.97;3.83;;;7.20;99.90;;;;;;5068630;28;20595;-79
2024/01/23 09:29:46;;;;;;;16.20;3.50;;;7.30;99.90;;;;;;5069801;28;20221;-79
2024/01/23 09:32:14;;;;;;;15.40;3.97;;;7.30;99.90;;;;;;5071930;28;20204;-79
2024/01/23 09:34:42;;;;;;;14.53;4.30;;;7.40;99.90;;;;;;5068636;28;20189;-79
2024/01/23 09:37:09;;;;;;;12.67;3.97;;;7.40;99.90;;;;;;5072169;28;20194;-79
2024/01/23 09:39:36;;;;;;;15.80;3.50;;;7.40;99.90;;;;;;5067621;28;20572;-79
2024/01/23 09:42:04;;;;;;;12.60;3.60;;;7.50;99.90;;;;;;5056357;28;20216;-79
2024/01/23 09:44:32;;;;;;;16.67;4.17;;;7.50;99.90;;;;;;5074865;28;20263;-79
2024/01/23 09:47:01;;;;;;;11.83;4.07;;;7.60;99.90;;;;;;5061865;28;20217;-79
2024/01/23 09:49:30;;;;;;;11.97;3.90;;;7.60;99.90;;;;;;5068531;28;20209;-79
2024/01/23 09:52:04;;;;;;;11.50;3.53;;;7.60;99.90;;;;;;5077210;28;20182;-79
2024/01/23 09:54:32;;;;;;;16.63;4.40;;;7.50;99.90;;;;;;5076314;28;20193;-79
2024/01/23 09:57:01;;;;;;;12.73;3.30;;;7.50;99.90;;;;;;5068575;28;20208;-79
2024/01/23 09:59:28;;;;;;;15.47;3.47;;;7.60;99.90;;;;;;5065005;28;20226;-79
2024/01/23 10:01:57;;;;;;;16.47;4.53;;;7.70;99.90;;;;;;5067121;28;20204;-79
2024/01/23 10:04:31;;;;;;;12.90;3.13;;;7.70;99.90;;;;;;5068284;28;20212;-79
2024/01/23 10:07:09;;;;;;;12.77;3.70;;;7.80;99.90;;;;;;5061095;28;20209;-78
2024/01/23 10:09:38;;;;;;;13.60;3.97;;;7.90;99.90;;;;;;5068793;28;20225;-79
2024/01/23 10:12:12;;;;;;;16.37;4.17;;;8.00;99.90;;;;;;5068567;28;20202;-79
2024/01/23 10:14:52;;;;;;;10.87;3.50;;;8.10;99.90;;;;;;5059319;28;20202;-79
2024/01/23 10:17:35;;;;;;;11.77;3.63;;;8.10;99.90;;;;;;5058791;28;20234;-79
2024/01/23 10:20:08;;;;;;;14.73;3.80;;;8.10;99.90;;;;;;5045587;28;20672;-79
2024/01/23 10:22:36;;;;;;;15.00;3.90;;;8.10;99.90;;;;;;5055999;28;20541;-79
2024/01/23 10:25:04;;;;;;;14.17;3.53;;;8.10;99.90;;;;;;5047973;28;20202;-79
2024/01/23 10:27:35;;;;;;;13.97;4.30;;;8.30;99.90;;;;;;5058695;28;20209;-78
2024/01/23 10:30:03;;;;;;;13.57;3.30;;;8.30;99.90;;;;;;5040235;28;20206;-78
2024/01/23 10:32:42;;;;;;;11.40;3.33;;;8.10;99.90;;;;;;5051971;28;20202;-78
2024/01/23 10:35:12;;;;;;;8.97;3.20;;;8.40;99.90;;;;;;5048430;28;20201;-78
2024/01/23 10:37:40;;;;;;;17.53;5.33;;;8.30;99.90;;;;;;5061102;28;20200;-78
2024/01/23 10:40:11;;;;;;;14.10;4.10;;;8.30;99.90;;;;;;5057088;28;20579;-78
2024/01/23 10:42:38;;;;;;;14.93;4.63;;;8.20;99.90;;;;;;5041509;28;20689;-77
2024/01/23 10:45:18;;;;;;;12.97;4.20;;;8.20;99.90;;;;;;5049232;28;20198;-77
2024/01/23 10:47:47;;;;;;;14.70;4.23;;;8.30;99.90;;;;;;5046489;28;20207;-78
2024/01/23 10:50:16;;;;;;;13.90;4.33;;;8.40;99.90;;;;;;5061881;28;20234;-78
2024/01/23 10:53:03;;;;;;;16.03;4.00;;;8.50;99.90;;;;;;5058159;28;20209;-78
2024/01/23 10:55:32;;;;;;;18.93;4.93;;;8.50;99.90;;;;;;5049327;28;20201;-78
2024/01/23 10:58:04;;;;;;;14.43;4.17;;;8.50;99.90;;;;;;5058577;28;20203;-78
2024/01/23 11:00:33;;;;;;;13.17;4.00;;;8.80;99.90;;;;;;5045932;28;20232;-78
2024/01/23 11:03:04;;;;;;;11.80;3.70;;;8.80;99.90;;;;;;5048366;28;20205;-79
2024/01/23 11:05:42;;;;;;;9.50;3.53;;;8.90;99.90;;;;;;5062888;28;20660;-78
2024/01/23 11:08:16;;;;;;;15.17;3.67;;;8.90;99.90;;;;;;5051256;28;20190;-77
2024/01/23 11:10:50;;;;;;;15.27;4.70;;;8.80;99.90;;;;;;5051799;28;20214;-78
2024/01/23 11:13:22;;;;;;;16.13;5.27;;;9.10;99.90;;;;;;5049446;28;20664;-78
2024/01/23 11:15:50;;;;;;;12.90;4.00;;;9.00;99.90;;;;;;5049828;28;20205;-78
2024/01/23 11:18:26;;;;;;;13.07;3.90;;;9.00;99.90;;;;;;5048582;28;20198;-78
2024/01/23 11:21:17;;;;;;;12.37;3.63;;;9.60;99.90;;;;;;5058594;28;20197;-78
2024/01/23 11:23:46;;;;;;;16.40;3.73;;;9.70;99.90;;;;;;5059039;28;20787;-78
2024/01/23 11:26:19;;;;;;;14.67;4.40;;;9.60;99.90;;;;;;5052185;28;20218;-78
2024/01/23 11:29:06;;;;;;;14.60;4.27;;;9.60;99.90;;;;;;5050686;28;20703;-78
2024/01/23 11:31:39;;;;;;;13.13;3.57;;;9.60;99.90;;;;;;5050870;28;20201;-78
2024/01/23 11:34:39;;;;;;;14.77;4.10;;;10.30;99.90;;;;;;5058159;28;20202;-78
2024/01/23 11:37:45;;;;;;;17.67;4.77;;;10.00;99.90;;;;;;5048171;28;20194;-78
2024/01/23 11:40:36;;;;;;;17.27;4.80;;;10.30;99.90;;;;;;5040834;28;20217;-78
2024/01/23 11:43:06;;;;;;;18.50;6.50;;;9.90;99.90;;;;;;5040681;28;20194;-78
2024/01/23 11:45:35;;;;;;;21.03;4.83;;;9.70;99.90;;;;;;5049343;28;20182;-78
2024/01/23 11:48:04;;;;;;;14.43;4.57;;;9.60;99.90;;;;;;5057898;28;20202;-78
2024/01/23 11:50:32;;;;;;;14.37;5.10;;;9.60;99.90;;;;;;5047119;28;20574;-78
2024/01/23 11:53:02;;;;;;;17.77;4.47;;;9.80;99.90;;;;;;5045252;28;20221;-75
2024/01/23 11:55:30;;;;;;;11.97;3.77;;;9.90;99.90;;;;;;5051531;28;20194;-75
2024/01/23 11:57:59;;;;;;;20.57;4.43;;;9.80;99.90;;;;;;5052258;28;20205;-78
2024/01/23 12:00:27;;;;;;;18.97;4.93;;;10.00;99.90;;;;;;5054881;28;20232;-78
2024/01/23 12:02:55;;;;;;;13.37;4.30;;;10.10;99.90;;;;;;5050578;28;20194;-77
2024/01/23 12:05:23;;;;;;;12.97;4.13;;;9.90;99.90;;;;;;5044678;28;20218;-78
2024/01/23 12:07:50;;;;;;;16.63;4.47;;;9.70;99.90;;;;;;5062549;28;20226;-78
2024/01/23 12:10:20;;;;;;;14.60;4.07;;;9.70;99.90;;;;;;5050492;28;20226;-78
2024/01/23 12:13:18;;;;;;;18.53;4.17;;;9.70;99.90;;;;;;5050988;28;20190;-78
2024/01/23 12:15:45;;;;;;;12.83;3.37;;;9.80;99.90;;;;;;5055995;28;20206;-79
2024/01/23 12:18:14;;;;;;;17.23;3.87;;;9.70;99.90;;;;;;5058171;28;20550;-78
2024/01/23 12:20:43;;;;;;;11.63;3.77;;;9.50;99.90;;;;;;5083118;22;20221;-79
2024/01/23 12:23:12;;;;;;;16.50;4.67;;;9.50;99.90;;;;;;5063630;28;20205;-79
2024/01/23 12:25:41;;;;;;;20.43;4.10;;;9.30;99.90;;;;;;5091618;28;20223;-79
2024/01/23 12:28:08;;;;;;;18.40;4.70;;;9.40;99.90;;;;;;5073011;28;20197;-79
2024/01/23 12:30:36;;;;;;;18.57;4.20;;;9.30;99.90;;;;;;5093159;28;20220;-79
2024/01/23 12:33:04;;;;;;;16.10;4.23;;;9.10;99.90;;;;;;5104634;28;20188;-79
2024/01/23 12:35:32;;;;;;;14.40;3.87;;;9.10;99.90;;;;;;5071504;28;20194;-79
2024/01/23 12:38:01;;;;;;;19.30;4.20;;;9.20;99.90;;;;;;5066944;28;20204;-79
2024/01/23 12:40:29;;;;;;;14.57;4.40;;;9.20;99.90;;;;;;5087566;28;20216;-81
2024/01/23 12:42:58;;;;;;;16.93;4.43;;;9.10;99.90;;;;;;5079448;28;20197;-81
2024/01/23 12:45:26;;;;;;;13.77;3.80;;;9.30;99.90;;;;;;5065383;28;20197;-80
2024/01/23 12:47:55;;;;;;;13.60;3.50;;;9.40;99.90;;;;;;5088673;28;20216;-81
2024/01/23 12:50:25;;;;;;;17.17;4.13;;;9.50;99.90;;;;;;5083035;28;20224;-81
2024/01/23 12:52:54;;;;;;;14.60;3.30;;;9.40;99.90;;;;;;5079447;28;20200;-80
2024/01/23 12:55:22;;;;;;;20.57;3.70;;;9.50;99.90;;;;;;5060640;28;20698;-81
2024/01/23 12:57:49;;;;;;;17.13;3.37;;;9.40;99.90;;;;;;5063463;28;20233;-80
2024/01/23 13:00:20;;;;;;;12.47;3.70;;;9.30;99.90;;;;;;5068464;28;20208;-80